Time;durP1;ratioP1;P1;durP2;ratioP2;P2;SDS_P1;SDS_P2;PMS_P1;PMS_P2;Temp;Humidity;BMP_temperature;BMP_pressure;BME280_temperature;BME280_humidity;BME280_pressure;Samples;Min_cycle;Max_cycle;Signal;HPM_P1;HPM_P2
2020/12/05 00:02:06;;;;;;;13.20;7.75;;;2.90;99.90;;;;;;5061676;28;21020;-74
2020/12/05 00:04:32;;;;;;;18.38;8.57;;;2.80;99.90;;;;;;5059792;28;20381;-75
2020/12/05 00:06:57;;;;;;;14.13;7.93;;;2.80;99.90;;;;;;5064615;28;20074;-75
2020/12/05 00:09:23;;;;;;;12.27;7.75;;;2.70;99.90;;;;;;5064740;28;20040;-73
2020/12/05 00:11:48;;;;;;;10.73;7.22;;;2.70;99.90;;;;;;5061135;28;20389;-73
2020/12/05 00:14:14;;;;;;;15.50;8.02;;;2.70;99.90;;;;;;5059913;28;20052;-74
2020/12/05 00:16:40;;;;;;;14.45;8.60;;;2.60;99.90;;;;;;5058220;28;20025;-74
2020/12/05 00:19:06;;;;;;;14.70;7.28;;;2.70;99.90;;;;;;5059818;28;20469;-73
2020/12/05 00:21:31;;;;;;;10.38;7.75;;;2.60;99.90;;;;;;5059057;28;20024;-74
2020/12/05 00:23:57;;;;;;;14.02;8.38;;;2.70;99.90;;;;;;5061979;28;20032;-73
2020/12/05 00:26:22;;;;;;;11.95;7.88;;;2.70;99.90;;;;;;5064195;28;20060;-72
2020/12/05 00:28:49;;;;;;;14.98;8.55;;;2.70;99.90;;;;;;5063937;28;20031;-73
2020/12/05 00:31:16;;;;;;;12.93;8.23;;;2.60;99.90;;;;;;5052799;28;20105;-74
2020/12/05 00:33:42;;;;;;;14.15;9.02;;;2.50;99.90;;;;;;5059986;28;20395;-74
2020/12/05 00:36:09;;;;;;;12.40;8.38;;;2.50;99.90;;;;;;5056229;28;20503;-74
2020/12/05 00:38:36;;;;;;;13.05;8.23;;;2.50;99.90;;;;;;5059374;28;20127;-73
2020/12/05 00:41:04;;;;;;;17.35;9.55;;;2.50;99.90;;;;;;5060474;28;20517;-73
2020/12/05 00:43:32;;;;;;;18.55;9.38;;;2.50;99.90;;;;;;5058533;28;20070;-74
2020/12/05 00:45:58;;;;;;;16.88;8.73;;;2.50;99.90;;;;;;5057653;28;20080;-73
2020/12/05 00:48:24;;;;;;;13.43;8.70;;;2.50;99.90;;;;;;5053900;28;20032;-73
2020/12/05 00:50:50;;;;;;;16.27;9.88;;;2.50;99.90;;;;;;5059185;28;20485;-73
2020/12/05 00:53:16;;;;;;;19.17;8.70;;;2.40;99.90;;;;;;5067510;28;20573;-73
2020/12/05 00:55:45;;;;;;;15.75;8.40;;;2.50;99.90;;;;;;5063080;28;20117;-74
2020/12/05 00:58:11;;;;;;;16.90;8.25;;;2.40;99.90;;;;;;5060036;28;20757;-73
2020/12/05 01:00:37;;;;;;;14.35;8.80;;;2.50;99.90;;;;;;5059351;28;20090;-73
2020/12/05 01:03:02;;;;;;;15.52;8.35;;;2.50;99.90;;;;;;5059706;28;20440;-73
2020/12/05 01:05:29;;;;;;;11.57;8.15;;;2.40;99.90;;;;;;5063468;28;20370;-74
2020/12/05 01:07:55;;;;;;;12.52;7.32;;;2.40;99.90;;;;;;5059768;28;20028;-73
2020/12/05 01:10:21;;;;;;;14.55;8.40;;;2.50;99.90;;;;;;5058730;28;20040;-74
2020/12/05 01:12:47;;;;;;;11.70;7.40;;;2.60;99.90;;;;;;5071594;28;20037;-73
2020/12/05 01:15:13;;;;;;;12.75;7.20;;;2.50;99.90;;;;;;5061429;28;20543;-73
2020/12/05 01:17:38;;;;;;;12.38;7.22;;;2.60;99.90;;;;;;5050651;28;20484;-74
2020/12/05 01:20:06;;;;;;;13.63;7.70;;;2.60;99.90;;;;;;5065613;28;20029;-73
2020/12/05 01:22:32;;;;;;;12.20;7.45;;;2.60;99.90;;;;;;5059283;28;20035;-74
2020/12/05 01:24:58;;;;;;;14.10;8.20;;;2.50;99.90;;;;;;5063716;28;20021;-74
2020/12/05 01:27:24;;;;;;;13.20;7.90;;;2.40;99.90;;;;;;5063558;28;20031;-74
2020/12/05 01:29:50;;;;;;;12.50;7.85;;;2.50;99.90;;;;;;5060753;28;20469;-73
2020/12/05 01:32:16;;;;;;;15.15;7.78;;;2.40;99.90;;;;;;5058590;28;20039;-73
2020/12/05 01:34:42;;;;;;;22.95;8.82;;;2.30;99.90;;;;;;5064817;28;20040;-73
2020/12/05 01:37:09;;;;;;;16.20;8.25;;;2.30;99.90;;;;;;5068541;28;20056;-74
2020/12/05 01:39:35;;;;;;;16.15;9.52;;;2.30;99.90;;;;;;5067469;28;20443;-74
2020/12/05 01:42:01;;;;;;;19.20;10.73;;;2.30;99.90;;;;;;5066420;28;20027;-73
2020/12/05 01:44:26;;;;;;;18.88;9.93;;;2.20;99.90;;;;;;5060511;28;20025;-74
2020/12/05 01:46:52;;;;;;;19.13;10.60;;;2.20;99.90;;;;;;5063482;28;20025;-74
2020/12/05 01:49:20;;;;;;;15.65;9.50;;;2.20;99.90;;;;;;5059824;28;20023;-73
2020/12/05 01:51:46;;;;;;;29.30;14.32;;;2.10;99.90;;;;;;5054450;28;20028;-73
2020/12/05 01:54:13;;;;;;;33.22;17.13;;;2.20;99.90;;;;;;5066526;28;20043;-74
2020/12/05 01:56:41;;;;;;;31.67;17.30;;;2.20;99.90;;;;;;5062436;28;20099;-74
2020/12/05 01:59:07;;;;;;;38.63;17.60;;;2.20;99.90;;;;;;5057905;28;20017;-73
2020/12/05 02:01:34;;;;;;;38.28;18.25;;;2.20;99.90;;;;;;5052977;28;20041;-73
2020/12/05 02:04:01;;;;;;;50.53;21.83;;;2.20;99.90;;;;;;5063090;28;20029;-73
2020/12/05 02:07:04;;;;;;;54.20;23.25;;;2.20;99.90;;;;;;5056025;28;20016;-73
2020/12/05 02:09:39;;;;;;;53.08;23.85;;;2.20;99.90;;;;;;5063109;28;20473;-74
2020/12/05 02:12:14;;;;;;;54.05;27.00;;;2.20;99.90;;;;;;5060566;28;20025;-73
2020/12/05 02:14:42;;;;;;;49.75;25.00;;;2.20;99.90;;;;;;5061371;28;20051;-73
2020/12/05 02:17:09;;;;;;;43.00;21.33;;;2.20;99.90;;;;;;5065641;28;20077;-73
2020/12/05 02:19:46;;;;;;;41.22;19.77;;;2.20;99.90;;;;;;5062289;28;20017;-73
2020/12/05 02:22:15;;;;;;;39.13;20.15;;;2.20;99.90;;;;;;5060024;28;20036;-73
2020/12/05 02:24:42;;;;;;;37.20;17.75;;;2.20;99.90;;;;;;5059718;28;20542;-73
2020/12/05 02:27:08;;;;;;;33.35;18.02;;;2.20;99.90;;;;;;5058599;28;20158;-73
2020/12/05 02:29:36;;;;;;;34.25;18.60;;;2.20;99.90;;;;;;5052252;28;20029;-73
2020/12/05 02:32:04;;;;;;;27.90;15.55;;;2.20;99.90;;;;;;5052937;28;20023;-73
2020/12/05 02:34:32;;;;;;;34.10;16.55;;;2.10;99.90;;;;;;5052252;28;20040;-74
2020/12/05 02:37:04;;;;;;;39.55;17.90;;;2.00;99.90;;;;;;5047236;28;20077;-73
2020/12/05 02:39:31;;;;;;;37.58;18.20;;;2.00;99.90;;;;;;5052413;28;20032;-73
2020/12/05 02:41:57;;;;;;;37.00;17.67;;;2.10;99.90;;;;;;5052373;28;20057;-73
2020/12/05 02:44:22;;;;;;;29.10;16.42;;;2.10;99.90;;;;;;5052942;28;20098;-73
2020/12/05 02:46:49;;;;;;;28.85;15.93;;;2.10;99.90;;;;;;5053141;28;20075;-73
2020/12/05 02:49:15;;;;;;;31.60;16.52;;;2.20;99.90;;;;;;5050765;28;20028;-73
2020/12/05 02:51:41;;;;;;;34.20;17.55;;;2.20;99.90;;;;;;5049552;28;20111;-73
2020/12/05 02:54:07;;;;;;;36.17;18.23;;;2.20;99.90;;;;;;5051945;28;20039;-73
2020/12/05 02:56:33;;;;;;;30.60;17.15;;;2.20;99.90;;;;;;5055076;28;20231;-73
2020/12/05 02:58:59;;;;;;;32.58;17.15;;;2.20;99.90;;;;;;5056060;28;20024;-72
2020/12/05 03:01:24;;;;;;;46.60;21.45;;;2.10;99.90;;;;;;5053268;28;20029;-72
2020/12/05 03:03:50;;;;;;;38.60;20.08;;;2.10;99.90;;;;;;5058173;28;20079;-72
2020/12/05 03:06:17;;;;;;;35.95;19.35;;;2.10;99.90;;;;;;5056995;28;20501;-72
2020/12/05 03:08:42;;;;;;;39.40;19.80;;;2.10;99.90;;;;;;5057491;28;20527;-72
2020/12/05 03:11:08;;;;;;;38.30;18.73;;;2.10;99.90;;;;;;5051671;28;20044;-72
2020/12/05 03:13:34;;;;;;;37.38;17.65;;;2.10;99.90;;;;;;5051644;28;20389;-71
2020/12/05 03:15:59;;;;;;;36.45;17.50;;;2.10;99.90;;;;;;5051499;28;20063;-71
2020/12/05 03:18:25;;;;;;;39.47;19.55;;;2.00;99.90;;;;;;5052360;28;20049;-72
2020/12/05 03:20:50;;;;;;;30.85;18.05;;;2.00;99.90;;;;;;5050244;28;20118;-71
2020/12/05 03:23:16;;;;;;;36.55;18.80;;;2.00;99.90;;;;;;5051448;28;20025;-72
2020/12/05 03:25:41;;;;;;;37.80;17.35;;;2.00;99.90;;;;;;5051527;28;20103;-71
2020/12/05 03:28:08;;;;;;;33.92;16.40;;;2.00;99.90;;;;;;5051321;28;20028;-71
2020/12/05 03:30:34;;;;;;;28.00;14.88;;;2.00;99.90;;;;;;5051926;28;20039;-72
2020/12/05 03:33:00;;;;;;;30.17;15.90;;;2.10;99.90;;;;;;5051644;28;20385;-72
2020/12/05 03:35:25;;;;;;;26.83;15.75;;;2.10;99.90;;;;;;5059258;28;20024;-71
2020/12/05 03:37:52;;;;;;;29.10;15.63;;;2.00;99.90;;;;;;5054748;28;20128;-71
2020/12/05 03:40:18;;;;;;;30.77;15.85;;;2.00;99.90;;;;;;5050990;28;20111;-71
2020/12/05 03:42:44;;;;;;;29.10;16.63;;;1.90;99.90;;;;;;5054009;28;20040;-71
2020/12/05 03:45:10;;;;;;;34.33;18.42;;;1.90;99.90;;;;;;5052011;28;20013;-71
2020/12/05 03:47:35;;;;;;;28.55;17.00;;;1.90;99.90;;;;;;5050133;28;20082;-72
2020/12/05 03:50:03;;;;;;;31.48;15.18;;;1.90;99.90;;;;;;5051927;28;20433;-72
2020/12/05 03:52:29;;;;;;;24.63;14.88;;;1.80;99.90;;;;;;5051328;28;20025;-71
2020/12/05 03:54:55;;;;;;;21.17;12.98;;;1.90;99.90;;;;;;5050382;28;20032;-72
2020/12/05 03:57:21;;;;;;;29.48;13.52;;;1.80;99.90;;;;;;5049657;28;20028;-71
2020/12/05 03:59:47;;;;;;;26.65;13.70;;;1.70;99.90;;;;;;5051029;28;20032;-71
2020/12/05 04:02:13;;;;;;;25.15;14.15;;;1.80;99.90;;;;;;5056701;28;20017;-71
2020/12/05 04:04:39;;;;;;;21.92;13.23;;;1.80;99.90;;;;;;5050492;28;20029;-71
2020/12/05 04:07:04;;;;;;;26.92;14.88;;;1.80;99.90;;;;;;5053059;28;20031;-71
2020/12/05 04:09:30;;;;;;;30.70;16.23;;;1.80;99.90;;;;;;5052687;28;20583;-71
2020/12/05 04:11:55;;;;;;;26.27;14.38;;;1.90;99.90;;;;;;5052614;28;20112;-71
2020/12/05 04:14:21;;;;;;;28.30;15.90;;;1.90;99.90;;;;;;5050565;28;20051;-71
2020/12/05 04:16:47;;;;;;;27.33;14.90;;;1.80;99.90;;;;;;5053739;28;20051;-71
2020/12/05 04:19:12;;;;;;;26.55;14.88;;;1.80;99.90;;;;;;5047415;28;20025;-71
2020/12/05 04:21:38;;;;;;;30.42;15.82;;;1.80;99.90;;;;;;5047682;28;20364;-72
2020/12/05 04:24:04;;;;;;;25.10;15.25;;;1.80;99.90;;;;;;5052191;28;20074;-71
2020/12/05 04:26:30;;;;;;;24.48;13.45;;;1.80;99.90;;;;;;5054558;28;20027;-72
2020/12/05 04:28:55;;;;;;;28.02;14.63;;;1.90;99.90;;;;;;5054963;28;20481;-71
2020/12/05 04:31:21;;;;;;;24.40;13.95;;;1.80;99.90;;;;;;5055512;28;20026;-71
2020/12/05 04:33:47;;;;;;;26.08;14.27;;;1.80;99.90;;;;;;5058625;28;20420;-71
2020/12/05 04:36:13;;;;;;;24.23;14.00;;;1.90;99.90;;;;;;5058350;28;20036;-71
2020/12/05 04:38:38;;;;;;;25.98;14.68;;;1.80;99.90;;;;;;5057518;28;20029;-71
2020/12/05 04:41:04;;;;;;;24.40;13.40;;;1.80;99.90;;;;;;5057660;28;20040;-71
2020/12/05 04:43:30;;;;;;;23.73;12.95;;;1.90;99.90;;;;;;5060380;28;20063;-71
2020/12/05 04:45:57;;;;;;;20.13;12.77;;;1.90;99.90;;;;;;5058778;28;20033;-71
2020/12/05 04:48:23;;;;;;;25.40;13.43;;;1.80;99.90;;;;;;5058097;28;20074;-71
2020/12/05 04:50:52;;;;;;;22.63;12.60;;;1.80;99.90;;;;;;5061683;28;20032;-71
2020/12/05 04:53:19;;;;;;;29.02;12.80;;;1.80;99.90;;;;;;5055437;28;20061;-71
2020/12/05 04:55:46;;;;;;;23.50;13.43;;;1.80;99.90;;;;;;5060879;28;20434;-71
2020/12/05 04:58:22;;;;;;;25.98;14.65;;;1.80;99.90;;;;;;5057488;28;20028;-71
2020/12/05 05:00:56;;;;;;;22.77;14.25;;;1.80;99.90;;;;;;5060858;28;20031;-71
2020/12/05 05:03:24;;;;;;;24.50;13.60;;;1.80;99.90;;;;;;5061274;28;20028;-71
2020/12/05 05:05:53;;;;;;;25.60;14.23;;;1.80;99.90;;;;;;5057640;28;20047;-71
2020/12/05 05:08:19;;;;;;;32.95;14.70;;;1.80;99.90;;;;;;5069538;28;20048;-71
2020/12/05 05:10:45;;;;;;;24.48;14.23;;;1.90;99.90;;;;;;5065545;28;20489;-71
2020/12/05 05:13:16;;;;;;;25.30;13.80;;;1.90;99.90;;;;;;5064524;28;20028;-71
2020/12/05 05:15:42;;;;;;;24.58;13.50;;;1.90;99.90;;;;;;5056176;28;20082;-71
2020/12/05 05:18:08;;;;;;;23.55;12.98;;;1.90;99.90;;;;;;5057027;28;20033;-71
2020/12/05 05:20:45;;;;;;;25.17;13.43;;;1.90;99.90;;;;;;5058771;28;20041;-71
2020/12/05 05:23:16;;;;;;;24.02;13.88;;;1.90;99.90;;;;;;5059360;28;20013;-71
2020/12/05 05:26:01;;;;;;;19.05;11.57;;;2.00;99.90;;;;;;5057627;28;20025;-71
2020/12/05 05:28:38;;;;;;;20.10;11.15;;;2.00;99.90;;;;;;5055086;28;20387;-71
2020/12/05 05:33:43;;;;;;;21.08;12.30;;;2.00;99.90;;;;;;5060401;28;20045;-71
2020/12/05 05:36:15;;;;;;;20.77;11.80;;;2.00;99.90;;;;;;5056517;28;20033;-71
2020/12/05 05:38:43;;;;;;;19.65;12.10;;;2.00;99.90;;;;;;5054198;28;20147;-72
2020/12/05 05:41:18;;;;;;;23.83;12.82;;;2.00;99.90;;;;;;5057045;28;20045;-71
2020/12/05 05:43:53;;;;;;;22.90;11.65;;;2.10;99.90;;;;;;5063903;28;20516;-71
2020/12/05 05:46:28;;;;;;;25.27;13.93;;;2.20;99.90;;;;;;5057013;28;20075;-71
2020/12/05 05:48:54;;;;;;;30.35;14.35;;;2.20;99.90;;;;;;5060259;28;20023;-71
2020/12/05 05:51:47;;;;;;;19.05;12.18;;;2.30;99.90;;;;;;5054204;28;20516;-71
2020/12/05 05:54:12;;;;;;;;;;;2.30;99.90;;;;;;5058315;28;20069;-71
2020/12/05 05:56:38;;;;;;;24.90;12.32;;;2.40;99.90;;;;;;5057363;28;20386;-72
2020/12/05 05:59:05;;;;;;;21.33;12.27;;;2.50;99.90;;;;;;5061897;28;20029;-72
2020/12/05 06:01:36;;;;;;;22.58;12.43;;;2.50;99.90;;;;;;5054393;28;20509;-71
2020/12/05 06:04:03;;;;;;;26.90;13.75;;;2.40;99.90;;;;;;5060856;28;20047;-72
2020/12/05 06:06:33;;;;;;;24.15;13.38;;;2.40;99.90;;;;;;5054937;28;20155;-72
2020/12/05 06:09:02;;;;;;;25.15;13.23;;;2.50;99.90;;;;;;5056212;28;20033;-72
2020/12/05 06:11:33;;;;;;;20.50;12.35;;;2.60;99.90;;;;;;5064023;28;20029;-72
2020/12/05 06:14:02;;;;;;;20.67;13.13;;;2.70;99.90;;;;;;5056818;28;20504;-72
2020/12/05 06:16:28;;;;;;;20.67;11.35;;;2.70;99.90;;;;;;5055951;28;20228;-72
2020/12/05 06:18:57;;;;;;;17.75;11.90;;;2.80;99.90;;;;;;5061332;28;22527;-72
2020/12/05 06:21:30;;;;;;;19.13;11.95;;;2.80;99.90;;;;;;5054716;28;20579;-72
2020/12/05 06:24:03;;;;;;;25.88;13.15;;;2.80;99.90;;;;;;5060504;28;20028;-72
2020/12/05 06:26:31;;;;;;;22.52;12.55;;;2.90;99.90;;;;;;5059470;28;20635;-72
2020/12/05 06:29:00;;;;;;;22.05;12.90;;;2.90;99.90;;;;;;5058913;28;20067;-72
2020/12/05 06:31:45;;;;;;;23.30;13.65;;;2.90;99.90;;;;;;5059415;28;20048;-72
2020/12/05 06:34:32;;;;;;;23.15;13.30;;;2.90;99.90;;;;;;5059364;28;20044;-72
2020/12/05 06:36:59;;;;;;;25.73;13.57;;;2.90;99.90;;;;;;5055938;28;20029;-72
2020/12/05 06:39:25;;;;;;;21.25;13.93;;;2.90;99.90;;;;;;5061995;28;20095;-72
2020/12/05 06:41:52;;;;;;;19.85;12.63;;;2.90;99.90;;;;;;5056850;28;20033;-72
2020/12/05 06:44:34;;;;;;;23.00;11.60;;;2.80;99.90;;;;;;5057505;28;20405;-72
2020/12/05 06:47:02;;;;;;;24.77;12.07;;;2.80;99.90;;;;;;5061467;28;20025;-72
2020/12/05 06:52:25;;;;;;;24.98;13.25;;;2.90;99.90;;;;;;5063504;28;20124;-72
2020/12/05 06:54:59;;;;;;;18.95;11.50;;;2.80;99.90;;;;;;5059640;28;20124;-72
2020/12/05 06:57:27;;;;;;;22.05;12.50;;;2.90;99.90;;;;;;5057597;28;20032;-72
2020/12/05 07:00:19;;;;;;;20.25;12.35;;;2.90;99.90;;;;;;5055427;28;20032;-72
2020/12/05 07:02:56;;;;;;;22.48;11.65;;;3.00;99.90;;;;;;5060210;28;20025;-72
2020/12/05 07:05:29;;;;;;;19.63;11.13;;;3.10;99.90;;;;;;5056947;28;20474;-73
2020/12/05 07:07:57;;;;;;;17.35;10.82;;;3.20;99.90;;;;;;5057271;28;20040;-72
2020/12/05 07:10:55;;;;;;;27.30;14.00;;;3.10;99.90;;;;;;5057261;28;20021;-72
2020/12/05 07:13:29;;;;;;;24.00;12.73;;;3.10;99.90;;;;;;5059418;28;20028;-72
2020/12/05 07:16:27;;;;;;;29.73;14.27;;;3.20;99.90;;;;;;5055374;28;20067;-72
2020/12/05 07:18:58;;;;;;;30.98;15.80;;;3.20;99.90;;;;;;5058914;28;20070;-72
2020/12/05 07:21:25;;;;;;;28.30;14.75;;;3.20;99.90;;;;;;5052165;28;20025;-71
2020/12/05 07:23:52;;;;;;;23.67;13.88;;;3.20;99.90;;;;;;5056998;28;20062;-74
2020/12/05 07:26:18;;;;;;;25.00;14.23;;;3.30;99.90;;;;;;5062210;28;20142;-72
2020/12/05 07:28:47;;;;;;;24.65;15.50;;;3.30;99.90;;;;;;5054952;28;20064;-72
2020/12/05 07:31:14;;;;;;;23.33;13.43;;;3.30;99.90;;;;;;5054372;28;20104;-73
2020/12/05 07:33:40;;;;;;;24.10;13.75;;;3.30;99.90;;;;;;5054029;28;20035;-73
2020/12/05 07:36:08;;;;;;;24.27;12.95;;;3.30;99.90;;;;;;5065329;28;20028;-72
2020/12/05 07:38:35;;;;;;;30.45;14.00;;;3.30;99.90;;;;;;5054865;28;20028;-72
2020/12/05 07:41:15;;;;;;;24.35;12.20;;;3.30;99.90;;;;;;5056161;28;20047;-72
2020/12/05 07:43:41;;;;;;;23.90;12.82;;;3.20;99.90;;;;;;5059436;28;20068;-72
2020/12/05 07:46:08;;;;;;;30.30;15.38;;;3.20;99.90;;;;;;5059336;28;20068;-72
2020/12/05 07:48:35;;;;;;;24.17;14.02;;;3.10;99.90;;;;;;5058663;28;20036;-72
2020/12/05 07:51:02;;;;;;;26.73;15.00;;;3.10;99.90;;;;;;5058236;28;20525;-72
2020/12/05 07:53:33;;;;;;;23.55;13.88;;;3.00;99.90;;;;;;5056843;28;20488;-73
2020/12/05 07:56:16;;;;;;;26.58;13.57;;;3.00;99.90;;;;;;5056285;28;20389;-72
2020/12/05 07:58:53;;;;;;;24.40;12.82;;;2.90;99.90;;;;;;5051853;28;20541;-73
2020/12/05 08:01:57;;;;;;;31.10;17.38;;;3.00;99.90;;;;;;5058175;28;20036;-73
2020/12/05 08:04:31;;;;;;;22.23;13.45;;;3.00;99.90;;;;;;5045286;28;20036;-72
2020/12/05 08:07:03;;;;;;;20.13;11.63;;;3.00;99.90;;;;;;5050635;28;20037;-72
2020/12/05 08:09:37;;;;;;;23.77;12.18;;;3.00;99.90;;;;;;5055459;28;20077;-73
2020/12/05 08:12:14;;;;;;;23.95;12.10;;;3.00;99.90;;;;;;5060150;28;20040;-72
2020/12/05 08:14:43;;;;;;;24.58;12.00;;;3.00;99.90;;;;;;5056760;28;20040;-72
2020/12/05 08:17:10;;;;;;;24.63;12.55;;;3.00;99.90;;;;;;5052057;28;20074;-71
2020/12/05 08:19:40;;;;;;;21.85;11.45;;;2.90;99.90;;;;;;5059137;28;20017;-73
2020/12/05 08:22:08;;;;;;;20.95;12.23;;;3.00;99.90;;;;;;5052966;28;20045;-73
2020/12/05 08:24:49;;;;;;;22.23;12.27;;;3.00;99.90;;;;;;5054029;28;20035;-72
2020/12/05 08:27:18;;;;;;;24.00;11.73;;;3.10;99.90;;;;;;5050965;28;20021;-72
2020/12/05 08:29:43;;;;;;;26.08;12.50;;;3.00;99.90;;;;;;5057455;28;20040;-72
2020/12/05 08:32:18;;;;;;;25.98;11.85;;;3.00;99.90;;;;;;5057317;28;20017;-74
2020/12/05 08:34:43;;;;;;;21.15;11.20;;;2.90;99.90;;;;;;5055677;28;20041;-73
2020/12/05 08:37:18;;;;;;;20.95;11.52;;;2.90;99.90;;;;;;5061664;28;20386;-73
2020/12/05 08:39:46;;;;;;;22.05;11.60;;;2.90;99.90;;;;;;5054529;28;20048;-72
2020/12/05 08:42:12;;;;;;;28.17;13.90;;;3.00;99.90;;;;;;5056105;28;20033;-73
2020/12/05 08:44:38;;;;;;;25.88;14.65;;;3.00;99.90;;;;;;5056331;28;20147;-72
2020/12/05 08:47:08;;;;;;;20.23;10.02;;;3.00;99.90;;;;;;5056555;28;20037;-73
2020/12/05 08:49:42;;;;;;;18.67;10.75;;;3.00;99.90;;;;;;5057348;28;20025;-72
2020/12/05 08:52:09;;;;;;;21.35;11.30;;;3.00;99.90;;;;;;5053457;28;20484;-73
2020/12/05 08:54:50;;;;;;;15.63;9.55;;;3.00;99.90;;;;;;5052283;28;20072;-72
2020/12/05 08:57:16;;;;;;;18.65;9.93;;;3.10;99.90;;;;;;5054363;28;20077;-73
2020/12/05 08:59:43;;;;;;;19.80;10.45;;;3.10;99.90;;;;;;5054803;28;20075;-73
2020/12/05 09:02:09;;;;;;;18.25;9.93;;;3.20;99.90;;;;;;5050712;28;20098;-74
2020/12/05 09:04:36;;;;;;;23.58;11.38;;;3.20;99.90;;;;;;5053592;28;20017;-73
2020/12/05 09:07:10;;;;;;;19.20;11.32;;;3.20;99.90;;;;;;5053946;28;20053;-73
2020/12/05 09:09:37;;;;;;;18.17;10.25;;;3.40;99.90;;;;;;5061005;28;20485;-73
2020/12/05 09:12:05;;;;;;;26.35;10.60;;;3.40;99.90;;;;;;5056889;28;20382;-73
2020/12/05 09:14:31;;;;;;;17.23;10.32;;;3.40;99.90;;;;;;5058993;28;21769;-72
2020/12/05 09:16:57;;;;;;;16.70;10.15;;;3.40;99.90;;;;;;5057184;28;20035;-72
2020/12/05 09:19:27;;;;;;;14.93;9.65;;;3.50;99.90;;;;;;5058371;28;20466;-73
2020/12/05 09:21:53;;;;;;;14.82;8.90;;;3.50;99.90;;;;;;5062108;28;20025;-72
2020/12/05 09:24:19;;;;;;;15.52;8.73;;;3.60;99.90;;;;;;5059042;28;20021;-72
2020/12/05 09:26:56;;;;;;;12.82;7.80;;;3.70;99.90;;;;;;5053254;28;20040;-72
2020/12/05 09:29:22;;;;;;;11.35;7.90;;;3.80;99.90;;;;;;5052637;28;20056;-70
2020/12/05 09:31:56;;;;;;;11.63;8.43;;;3.80;99.90;;;;;;5059596;28;20029;-70
2020/12/05 09:34:35;;;;;;;12.25;7.43;;;3.90;99.90;;;;;;5063528;28;20438;-70
2020/12/05 09:37:12;;;;;;;12.73;6.82;;;4.00;99.90;;;;;;5056501;28;20486;-69
2020/12/05 09:39:39;;;;;;;10.20;6.47;;;4.10;99.90;;;;;;5059384;28;20033;-70
2020/12/05 09:42:05;;;;;;;9.60;6.80;;;4.10;99.90;;;;;;5057687;28;20025;-70
2020/12/05 09:44:32;;;;;;;7.65;6.20;;;4.20;99.90;;;;;;5055977;28;20025;-69
2020/12/05 09:46:57;;;;;;;10.23;6.72;;;4.20;99.90;;;;;;5057399;28;20120;-69
2020/12/05 09:49:23;;;;;;;9.75;6.07;;;4.20;99.90;;;;;;5060386;28;20099;-70
2020/12/05 09:51:49;;;;;;;9.25;5.72;;;4.20;99.90;;;;;;5064682;28;20126;-69
2020/12/05 09:54:14;;;;;;;9.10;5.80;;;4.30;99.90;;;;;;5057537;28;20051;-69
2020/12/05 09:56:40;;;;;;;7.10;5.40;;;4.40;99.90;;;;;;5060780;28;20025;-71
2020/12/05 09:59:05;;;;;;;6.72;4.43;;;4.40;99.90;;;;;;5055734;28;20031;-71
2020/12/05 10:01:31;;;;;;;6.82;4.70;;;4.40;99.90;;;;;;5059000;28;20025;-70
2020/12/05 10:03:56;;;;;;;8.00;4.00;;;4.40;99.90;;;;;;5054831;28;20057;-68
2020/12/05 10:06:22;;;;;;;10.48;4.15;;;4.60;99.90;;;;;;5054587;28;21452;-70
2020/12/05 10:08:48;;;;;;;6.28;4.53;;;4.60;99.90;;;;;;5059032;28;20515;-70
2020/12/05 10:11:13;;;;;;;5.93;4.78;;;4.70;99.90;;;;;;5062757;28;20041;-70
2020/12/05 10:13:39;;;;;;;8.25;4.25;;;4.80;99.90;;;;;;5060394;28;20496;-69
2020/12/05 10:16:05;;;;;;;5.32;3.92;;;4.80;99.90;;;;;;5063822;28;20043;-70
2020/12/05 10:18:30;;;;;;;7.00;4.03;;;4.80;99.90;;;;;;5061045;28;20025;-70
2020/12/05 10:20:56;;;;;;;6.15;3.95;;;4.80;99.90;;;;;;5061169;28;20028;-71
2020/12/05 10:23:21;;;;;;;5.43;4.47;;;4.80;99.90;;;;;;5064512;28;20480;-69
2020/12/05 10:25:47;;;;;;;7.28;4.25;;;4.80;99.90;;;;;;5057958;28;20030;-70
2020/12/05 10:28:12;;;;;;;5.55;4.07;;;4.90;99.90;;;;;;5052376;28;20014;-69
2020/12/05 10:30:38;;;;;;;7.65;3.88;;;4.80;99.90;;;;;;5053269;28;20061;-70
2020/12/05 10:33:04;;;;;;;6.28;3.65;;;4.90;99.90;;;;;;5055319;28;20029;-70
2020/12/05 10:35:29;;;;;;;6.72;3.17;;;4.80;99.90;;;;;;5053192;28;20036;-70
2020/12/05 10:37:55;;;;;;;4.25;3.00;;;4.90;99.90;;;;;;5055685;28;20389;-70
2020/12/05 10:40:20;;;;;;;5.68;3.33;;;5.00;99.90;;;;;;5054857;28;20086;-70
2020/12/05 10:42:46;;;;;;;5.57;3.38;;;5.10;99.90;;;;;;5051775;28;20090;-70
2020/12/05 10:45:12;;;;;;;6.28;2.85;;;5.10;99.90;;;;;;5054164;28;20096;-70
2020/12/05 10:47:37;;;;;;;4.80;2.90;;;5.30;99.90;;;;;;5054748;28;20032;-69
2020/12/05 10:50:03;;;;;;;4.75;3.15;;;5.20;99.90;;;;;;5053224;28;20029;-70
2020/12/05 10:52:28;;;;;;;6.22;3.55;;;5.20;99.90;;;;;;5052522;28;20073;-73
2020/12/05 10:54:54;;;;;;;4.03;2.80;;;5.20;99.90;;;;;;5053449;28;20151;-72
2020/12/05 10:57:19;;;;;;;6.70;3.40;;;5.20;99.90;;;;;;5054075;28;20025;-70
2020/12/05 10:59:45;;;;;;;2.60;2.40;;;5.30;99.90;;;;;;5055656;28;20037;-71
2020/12/05 11:02:10;;;;;;;3.05;2.35;;;5.20;99.90;;;;;;5056276;28;20013;-70
2020/12/05 11:04:36;;;;;;;3.92;2.22;;;5.30;99.90;;;;;;5052862;28;20029;-71
2020/12/05 11:07:02;;;;;;;3.95;2.30;;;5.30;99.90;;;;;;5052583;28;20020;-72
2020/12/05 11:09:27;;;;;;;4.03;2.17;;;5.30;99.90;;;;;;5051791;28;20436;-72
2020/12/05 11:11:53;;;;;;;4.85;2.50;;;5.40;99.90;;;;;;5052061;28;20052;-74
2020/12/05 11:14:19;;;;;;;4.93;2.50;;;5.30;99.90;;;;;;5058956;28;20122;-73
2020/12/05 11:16:44;;;;;;;2.97;2.13;;;5.20;99.90;;;;;;5051011;28;20108;-72
2020/12/05 11:19:10;;;;;;;5.38;2.50;;;5.30;99.90;;;;;;5050993;28;20029;-72
2020/12/05 11:21:36;;;;;;;4.65;1.92;;;5.30;99.90;;;;;;5060795;28;20035;-73
2020/12/05 11:24:01;;;;;;;4.28;2.03;;;5.40;99.90;;;;;;5060976;28;20111;-74
2020/12/05 11:26:27;;;;;;;2.67;1.75;;;5.40;99.90;;;;;;5054872;28;20028;-73
2020/12/05 11:28:52;;;;;;;3.50;1.70;;;5.60;99.90;;;;;;5056116;28;20535;-73
2020/12/05 11:31:18;;;;;;;4.07;1.88;;;5.60;99.90;;;;;;5059130;28;20109;-73
2020/12/05 11:33:44;;;;;;;5.60;1.85;;;5.70;99.90;;;;;;5056829;28;20033;-73
2020/12/05 11:36:10;;;;;;;5.13;2.95;;;5.70;99.90;;;;;;5061698;28;20328;-73
2020/12/05 11:38:36;;;;;;;2.67;1.70;;;5.60;99.90;;;;;;5063642;28;20103;-73
2020/12/05 11:41:01;;;;;;;2.92;1.40;;;5.60;99.90;;;;;;5054949;28;20112;-73
2020/12/05 11:43:27;;;;;;;2.45;1.48;;;5.60;99.90;;;;;;5055520;28;20535;-73
2020/12/05 11:45:53;;;;;;;4.53;1.75;;;5.60;99.90;;;;;;5056534;28;20032;-74
2020/12/05 11:48:18;;;;;;;2.67;1.80;;;5.70;99.90;;;;;;5059047;28;20461;-72
2020/12/05 11:50:44;;;;;;;4.80;1.65;;;5.70;99.90;;;;;;5054985;28;20025;-71
2020/12/05 11:53:09;;;;;;;3.58;1.92;;;5.80;99.90;;;;;;5054622;28;20044;-72
2020/12/05 11:55:35;;;;;;;4.47;2.10;;;5.80;99.90;;;;;;5059518;28;20044;-72
2020/12/05 11:58:02;;;;;;;3.65;1.63;;;5.80;99.90;;;;;;5054996;28;20098;-70
2020/12/05 12:00:27;;;;;;;3.78;1.50;;;5.80;99.90;;;;;;5059049;28;20024;-70
2020/12/05 12:02:53;;;;;;;9.90;2.03;;;5.90;99.90;;;;;;5053562;28;20027;-73
2020/12/05 12:05:20;;;;;;;6.88;1.92;;;5.90;99.90;;;;;;5059098;28;20078;-72
2020/12/05 12:07:46;;;;;;;8.15;4.18;;;5.80;99.90;;;;;;5063086;28;20506;-73
2020/12/05 12:10:11;;;;;;;6.63;2.15;;;5.90;99.90;;;;;;5057623;28;20020;-74
2020/12/05 12:12:37;;;;;;;5.47;2.00;;;6.00;99.90;;;;;;5052041;28;20459;-70
2020/12/05 12:15:03;;;;;;;5.80;2.40;;;6.00;99.90;;;;;;5058928;28;20040;-70
2020/12/05 12:17:28;;;;;;;3.83;1.75;;;6.10;99.90;;;;;;5062386;28;20093;-72
2020/12/05 12:19:54;;;;;;;2.30;1.77;;;6.00;99.90;;;;;;5057264;28;20489;-71
2020/12/05 12:22:20;;;;;;;2.42;1.52;;;6.10;99.90;;;;;;5064444;28;20043;-72
2020/12/05 12:24:45;;;;;;;3.17;1.70;;;6.20;99.90;;;;;;5057568;28;20040;-73
2020/12/05 12:27:11;;;;;;;6.53;2.53;;;6.20;99.90;;;;;;5052977;28;20029;-73
2020/12/05 12:29:36;;;;;;;2.92;1.75;;;6.10;99.90;;;;;;5062901;28;20536;-73
2020/12/05 12:32:02;;;;;;;2.95;1.38;;;6.10;99.90;;;;;;5067169;28;20020;-74
2020/12/05 12:34:27;;;;;;;3.38;1.52;;;6.10;99.90;;;;;;5056970;28;20028;-74
2020/12/05 12:36:53;;;;;;;5.68;1.63;;;6.20;99.90;;;;;;5055545;28;20048;-73
2020/12/05 12:39:19;;;;;;;7.50;1.80;;;6.10;99.90;;;;;;5057399;28;20029;-73
2020/12/05 12:41:44;;;;;;;4.38;1.50;;;6.20;99.90;;;;;;5051994;28;20036;-73
2020/12/05 12:44:10;;;;;;;3.58;1.45;;;6.30;99.90;;;;;;5057334;28;20495;-71
2020/12/05 12:46:44;;;;;;;2.08;1.35;;;6.30;99.90;;;;;;5056616;28;20497;-73
2020/12/05 12:49:10;;;;;;;6.10;1.90;;;6.30;99.90;;;;;;5064120;28;20012;-73
2020/12/05 12:51:36;;;;;;;3.53;1.48;;;6.30;99.90;;;;;;5066433;28;20021;-74
2020/12/05 12:54:01;;;;;;;4.95;1.55;;;6.20;99.90;;;;;;5065483;28;20065;-73